Airfield :
LOGIN :

Register | Disclaimer

   EN    FR    IT 

 










Legend :    VFR   Marginal VFR   IFR   Intensive IFR   Very Intensive IFR
Visi :
Ceiling :
>= 8 km
>= 3000ft
5 to 8 km
1000 to 3000 ft
1500m to 5 km
500 to 1000 ft
800 to 1500m
200 to 500 ft
< 800m
< 200 ft
Symbols :   Thunderstorms  Fog  Heavy snow  Heavy precipitations  Wind > 20 kt
SIGMETs :     Misc.  Thunderstorms  Icing  Turbulence  Mountain Waves  Volcanic Ashes






- Airport Elevation : 132 ft


EGXE - RAF Leeming

CURRENT METAR :
  • 021020Z 26017KT 9999 SCT025 SCT250 11/06 Q1009 BECMG 30018G28KT RMK BLU BECMG BLU

EXPIRED METARs :
  • 020950Z 27018KT 9999 SCT025 SCT250 12/06 Q1009 BECMG 30020G30KT RMK BLU BECMG BLU
  • 020920Z 26021KT 9999 FEW024 11/05 Q1009 BECMG 30020G30KT RMK BLU BECMG BLU
  • 020850Z 26016KT 9999 FEW023 10/05 Q1010 BECMG 30018G28KT RMK BLU BECMG BLU
  • 020820Z 24013G24KT 9999 SCT022 10/05 Q1010 BECMG 28018G28KT FEW022 RMK WHT BECMG BLU

TAF TAF EGXE
Valid from the 02 at 09:00 until the 02 at 17:00 UTC


020738Z 0209/0217 26012KT 9999 FEW020
PROB30
TEMPO 0209/0210 SCT020
BECMG 0209/0212 30018G28KT



MET'MAP, your aeronautical weather chart ! - Copyright ORBIFLY December 2007 - Disclaimer

ORBIFLY MET'MAP TEAM :

Programming & Development : Alexandra Zaïnal
Concept & original design : Baudouin d'Aumeries
Assistance for programming : Marc-Olivier Méhu
Technical & hardware support : Manuel Goepfert

Contact : metmap@orbifly.com




SOURCES & CREDITS :

   NOAA